createdAt,value
2018-03-08T00:01:22.550Z,62.92
2018-03-08T00:03:50.197Z,63.47
2018-03-08T00:06:17.797Z,63.33
2018-03-08T00:08:45.444Z,64.00
2018-03-08T00:11:13.047Z,63.91
2018-03-08T00:13:40.684Z,63.80
2018-03-08T00:16:08.298Z,63.63
2018-03-08T00:18:35.937Z,63.63
2018-03-08T00:21:03.527Z,63.75
2018-03-08T00:23:31.190Z,63.38
2018-03-08T00:25:58.787Z,63.52
2018-03-08T00:28:26.435Z,63.63
2018-03-08T00:30:54.040Z,63.88
2018-03-08T00:33:21.709Z,63.68
2018-03-08T00:35:49.309Z,64.01
2018-03-08T00:38:17.031Z,64.20
2018-03-08T00:40:44.623Z,64.06
2018-03-08T00:43:12.286Z,64.13
2018-03-08T00:45:39.880Z,64.03
2018-03-08T00:48:07.537Z,64.40
2018-03-08T00:50:35.136Z,64.99
2018-03-08T00:53:02.772Z,65.60
2018-03-08T00:55:30.364Z,65.68
2018-03-08T00:57:58.009Z,65.95
2018-03-08T01:00:25.648Z,66.36
2018-03-08T01:02:53.287Z,66.78
2018-03-08T01:05:20.918Z,67.20
2018-03-08T01:07:48.561Z,67.63
2018-03-08T01:10:16.154Z,67.73
2018-03-08T01:12:43.797Z,67.29
2018-03-08T01:15:11.410Z,67.17
2018-03-08T01:17:39.065Z,67.01
2018-03-08T01:20:06.704Z,67.06
2018-03-08T01:22:34.340Z,67.25
2018-03-08T01:25:01.948Z,67.63
2018-03-08T01:27:29.596Z,67.19
2018-03-08T01:29:57.200Z,67.11
2018-03-08T01:32:24.837Z,67.12
2018-03-08T01:34:52.437Z,67.35
2018-03-08T01:37:20.097Z,66.64
2018-03-08T01:39:47.697Z,65.95
2018-03-08T01:42:15.350Z,66.49
2018-03-08T01:44:42.961Z,66.14
2018-03-08T01:47:10.599Z,65.56
2018-03-08T01:49:38.248Z,65.83
2018-03-08T01:52:11.884Z,65.77
2018-03-08T01:54:39.526Z,65.73
2018-03-08T01:57:07.128Z,65.85
2018-03-08T01:59:34.796Z,66.69
2018-03-08T02:02:02.405Z,67.47
2018-03-08T02:04:30.045Z,67.37
2018-03-08T02:06:57.671Z,67.83
2018-03-08T02:09:25.322Z,67.49
2018-03-08T02:11:52.919Z,67.87
2018-03-08T02:14:20.568Z,67.78
2018-03-08T02:16:48.176Z,67.49
2018-03-08T02:19:15.864Z,67.29
2018-03-08T02:21:43.463Z,66.70
2018-03-08T02:24:11.115Z,67.05
2018-03-08T02:26:38.726Z,67.18
2018-03-08T02:29:06.362Z,66.64
2018-03-08T02:31:33.964Z,67.02
2018-03-08T02:34:01.609Z,67.06
2018-03-08T02:36:29.243Z,67.86
2018-03-08T02:38:56.878Z,67.90
2018-03-08T02:41:24.480Z,67.70
2018-03-08T02:43:52.116Z,67.71
2018-03-08T02:46:19.720Z,66.78
2018-03-08T02:48:47.353Z,66.32
2018-03-08T02:51:14.958Z,65.91
2018-03-08T02:53:42.656Z,66.82
2018-03-08T02:56:10.257Z,67.63
2018-03-08T02:58:37.901Z,68.04
2018-03-08T03:01:05.492Z,67.53
2018-03-08T03:03:33.147Z,66.63
2018-03-08T03:06:00.750Z,66.94
2018-03-08T03:08:28.405Z,66.76
2018-03-08T03:10:56.006Z,66.59
2018-03-08T03:13:23.657Z,66.46
2018-03-08T03:15:51.268Z,67.94
2018-03-08T03:18:18.929Z,69.01
2018-03-08T03:20:46.527Z,69.67
2018-03-08T03:23:14.180Z,69.21
2018-03-08T03:25:41.784Z,69.07
2018-03-08T03:28:09.439Z,68.32
2018-03-08T03:30:37.044Z,68.76
2018-03-08T03:33:04.689Z,69.15
2018-03-08T03:35:32.301Z,68.98
2018-03-08T03:37:59.960Z,70.01
2018-03-08T03:40:27.568Z,69.95
2018-03-08T03:42:55.287Z,69.73
2018-03-08T03:45:22.893Z,69.65
2018-03-08T03:47:50.538Z,69.68
2018-03-08T03:50:18.144Z,69.27
2018-03-08T03:52:45.795Z,69.63
2018-03-08T03:55:13.445Z,69.13
2018-03-08T03:57:41.051Z,68.27
2018-03-08T04:00:08.686Z,67.77
2018-03-08T04:02:36.285Z,67.63
2018-03-08T04:05:03.974Z,66.63
2018-03-08T04:07:31.588Z,66.64
2018-03-08T04:09:59.228Z,66.00
2018-03-08T04:12:26.880Z,65.89
2018-03-08T04:14:54.541Z,66.01
2018-03-08T04:17:22.157Z,67.22
2018-03-08T04:19:49.858Z,67.64
2018-03-08T04:22:17.464Z,68.68
2018-03-08T04:24:45.145Z,70.02
2018-03-08T04:27:12.766Z,69.70
2018-03-08T04:29:40.418Z,70.03
2018-03-08T04:32:08.066Z,70.26
2018-03-08T04:34:35.705Z,70.80
2018-03-08T04:37:03.307Z,69.89
2018-03-08T04:39:30.956Z,69.13
2018-03-08T04:41:58.578Z,68.40
2018-03-08T04:44:26.225Z,67.95
2018-03-08T04:46:53.828Z,68.12
2018-03-08T04:49:21.471Z,68.28
2018-03-08T04:51:49.075Z,68.27
2018-03-08T04:54:16.810Z,67.40
2018-03-08T04:56:44.406Z,66.96
2018-03-08T04:59:12.036Z,67.19
2018-03-08T05:01:39.636Z,66.98
2018-03-08T05:04:07.276Z,66.72
2018-03-08T05:06:34.891Z,66.78
2018-03-08T05:09:02.548Z,66.34
2018-03-08T05:11:30.152Z,66.46
2018-03-08T05:13:57.791Z,66.09
2018-03-08T05:16:25.524Z,66.15
2018-03-08T05:18:53.196Z,66.23
2018-03-08T05:21:20.797Z,67.00
2018-03-08T05:23:48.497Z,66.89
2018-03-08T05:26:16.116Z,67.63
2018-03-08T05:28:43.763Z,67.27
2018-03-08T05:31:11.397Z,67.06
2018-03-08T05:33:39.088Z,67.58
2018-03-08T05:36:06.693Z,68.48
2018-03-08T05:38:34.352Z,70.13
2018-03-08T05:41:01.963Z,72.25
2018-03-08T05:43:29.607Z,73.17
2018-03-08T05:45:57.201Z,73.11
2018-03-08T05:48:24.860Z,72.25
2018-03-08T05:50:52.480Z,70.89
2018-03-08T05:53:20.131Z,69.37
2018-03-08T05:55:47.736Z,67.90
2018-03-08T05:58:15.389Z,67.80
2018-03-08T06:00:42.988Z,67.21
2018-03-08T06:03:10.641Z,67.42
2018-03-08T06:05:38.288Z,66.71
2018-03-08T06:08:05.884Z,66.31
2018-03-08T06:10:33.529Z,65.98
2018-03-08T06:13:01.156Z,65.63
2018-03-08T06:15:28.803Z,64.70
2018-03-08T06:17:56.433Z,65.46
2018-03-08T06:20:24.077Z,64.78
2018-03-08T06:22:51.688Z,64.39
2018-03-08T06:25:19.346Z,65.29
2018-03-08T06:27:46.979Z,66.41
2018-03-08T06:30:14.629Z,67.04
2018-03-08T06:32:42.240Z,67.63
2018-03-08T06:35:10.040Z,68.28
2018-03-08T06:37:37.648Z,68.15
2018-03-08T06:40:05.306Z,67.94
2018-03-08T06:42:32.945Z,67.32
2018-03-08T06:45:00.630Z,66.29
2018-03-08T06:47:28.250Z,65.37
2018-03-08T06:49:55.928Z,64.39
2018-03-08T06:52:23.529Z,64.43
2018-03-08T06:54:51.186Z,63.95
2018-03-08T06:57:18.840Z,63.09
2018-03-08T06:59:46.488Z,62.06
2018-03-08T07:02:14.093Z,61.42
2018-03-08T07:04:41.805Z,60.24
2018-03-08T07:07:09.425Z,60.33
2018-03-08T07:09:37.105Z,60.03
2018-03-08T07:12:04.721Z,60.14
2018-03-08T07:14:32.368Z,60.80
2018-03-08T07:16:59.981Z,60.46
2018-03-08T07:19:27.647Z,60.23
2018-03-08T07:21:55.260Z,60.85
2018-03-08T07:24:22.908Z,60.73
2018-03-08T07:26:50.526Z,60.90
2018-03-08T07:29:18.186Z,61.19
2018-03-08T07:31:45.792Z,61.58
2018-03-08T07:34:13.456Z,61.98
2018-03-08T07:36:41.128Z,62.46
2018-03-08T07:39:08.785Z,62.41
2018-03-08T07:41:36.402Z,63.57
2018-03-08T07:44:04.070Z,65.36
2018-03-08T07:46:31.689Z,66.00
2018-03-08T07:48:59.308Z,65.09
2018-03-08T07:51:26.962Z,64.42
2018-03-08T07:53:54.585Z,62.81
2018-03-08T07:56:22.220Z,62.04
2018-03-08T07:58:49.846Z,62.72
2018-03-08T08:01:17.493Z,64.46
2018-03-08T08:03:45.101Z,65.82
2018-03-08T08:06:24.499Z,66.30
2018-03-08T08:09:09.787Z,66.72
2018-03-08T08:11:37.448Z,65.52
2018-03-08T08:14:05.075Z,65.30
2018-03-08T08:16:32.742Z,64.88
2018-03-08T08:19:00.381Z,65.22
2018-03-08T08:21:28.254Z,65.39
2018-03-08T08:23:56.189Z,64.95
2018-03-08T08:26:23.847Z,63.96
2018-03-08T08:28:51.470Z,65.13
2018-03-08T08:31:19.299Z,64.26
2018-03-08T08:33:46.910Z,64.76
2018-03-08T08:36:14.565Z,62.93
2018-03-08T08:38:42.194Z,60.85
2018-03-08T08:41:09.810Z,61.09
2018-03-08T08:43:37.460Z,61.29
2018-03-08T08:46:05.085Z,60.86
2018-03-08T08:48:32.732Z,59.59
2018-03-08T08:51:00.348Z,59.52
2018-03-08T08:53:28.074Z,62.35
2018-03-08T08:55:55.696Z,62.46
2018-03-08T08:58:23.359Z,61.34
2018-03-08T09:00:50.974Z,64.23
2018-03-08T09:03:18.620Z,64.91
2018-03-08T09:05:46.236Z,64.03
2018-03-08T09:08:13.877Z,62.71
2018-03-08T09:10:41.496Z,61.64
2018-03-08T09:13:09.141Z,61.64
2018-03-08T09:15:36.750Z,59.73
2018-03-08T09:18:04.404Z,59.43
2018-03-08T09:20:32.018Z,59.05
2018-03-08T09:22:59.677Z,59.59
2018-03-08T09:25:27.270Z,60.81
2018-03-08T09:27:54.927Z,62.72
2018-03-08T09:30:22.536Z,60.95
2018-03-08T09:32:50.185Z,59.83
2018-03-08T09:35:17.818Z,57.31
2018-03-08T09:37:45.465Z,58.97
2018-03-08T09:40:13.077Z,59.65
2018-03-08T09:42:40.683Z,61.39
2018-03-08T09:45:08.343Z,61.14
2018-03-08T09:47:35.964Z,58.92
2018-03-08T09:50:03.623Z,59.99
2018-03-08T09:52:31.244Z,56.46
2018-03-08T09:54:58.928Z,55.36
2018-03-08T09:57:26.538Z,56.04
2018-03-08T09:59:54.908Z,55.23
2018-03-08T10:02:22.642Z,52.53
2018-03-08T10:04:50.314Z,51.14
2018-03-08T10:07:18.000Z,51.28
2018-03-08T10:09:45.675Z,51.86
2018-03-08T10:12:13.289Z,52.36
2018-03-08T10:14:40.951Z,55.09
2018-03-08T10:17:08.568Z,54.72
2018-03-08T10:19:36.225Z,54.69
2018-03-08T10:22:03.849Z,55.22
2018-03-08T10:24:31.577Z,55.31
2018-03-08T10:26:59.259Z,55.80
2018-03-08T10:29:26.885Z,57.44
2018-03-08T10:31:54.537Z,57.43
2018-03-08T10:34:22.214Z,57.59
2018-03-08T10:36:50.035Z,57.46
2018-03-08T10:39:28.255Z,56.89
2018-03-08T10:41:45.775Z,57.19
2018-03-08T10:44:13.440Z,56.94
2018-03-08T10:46:41.137Z,56.22
2018-03-08T10:49:08.841Z,55.47
2018-03-08T10:51:36.988Z,53.38
2018-03-08T10:54:04.697Z,50.75
2018-03-08T10:56:32.443Z,48.05
2018-03-08T10:59:00.256Z,47.73
2018-03-08T11:01:28.031Z,47.50
2018-03-08T11:03:55.796Z,48.38
2018-03-08T11:06:29.395Z,49.47
2018-03-08T11:08:57.159Z,49.07
2018-03-08T11:11:25.130Z,49.05
2018-03-08T11:13:52.893Z,50.18
2018-03-08T11:16:20.612Z,50.61
2018-03-08T11:18:48.422Z,51.86
2018-03-08T11:21:16.393Z,52.55
2018-03-08T11:23:44.155Z,53.63
2018-03-08T11:26:11.984Z,53.98
2018-03-08T11:28:39.785Z,53.64
2018-03-08T11:31:07.550Z,51.49
2018-03-08T11:33:35.297Z,49.94
2018-03-08T11:36:07.916Z,50.45
2018-03-08T11:38:35.522Z,50.85
2018-03-08T11:41:03.173Z,51.77
2018-03-08T11:43:30.800Z,51.98
2018-03-08T11:45:58.452Z,52.27
2018-03-08T11:48:26.051Z,50.25
2018-03-08T11:50:53.692Z,50.32
2018-03-08T11:53:21.309Z,49.69
2018-03-08T11:55:48.970Z,50.10
2018-03-08T11:58:16.588Z,49.97
2018-03-08T12:00:44.240Z,49.92
2018-03-08T12:03:11.863Z,50.14
2018-03-08T12:05:39.568Z,49.69
2018-03-08T12:08:07.189Z,49.10
2018-03-08T12:10:34.881Z,48.35
2018-03-08T12:13:02.593Z,45.63
2018-03-08T12:15:30.274Z,45.18
2018-03-08T12:17:58.011Z,44.50
2018-03-08T12:20:25.807Z,45.39
2018-03-08T12:22:53.507Z,45.12
2018-03-08T12:25:21.324Z,44.19
2018-03-08T12:27:49.096Z,43.72
2018-03-08T12:30:16.758Z,45.57
2018-03-08T12:32:44.525Z,45.91
2018-03-08T12:35:12.344Z,45.72
2018-03-08T12:37:40.050Z,43.06
2018-03-08T12:40:07.819Z,43.22
2018-03-08T12:42:35.544Z,42.58
2018-03-08T12:45:03.350Z,43.65
2018-03-08T12:47:31.109Z,42.98
2018-03-08T12:49:58.779Z,41.64
2018-03-08T12:52:26.604Z,42.86
2018-03-08T12:54:54.503Z,42.58
2018-03-08T12:57:22.270Z,42.53
2018-03-08T12:59:50.032Z,42.95
2018-03-08T13:02:17.800Z,43.32
2018-03-08T13:04:45.508Z,43.13
2018-03-08T13:07:13.324Z,43.64
2018-03-08T13:09:41.088Z,43.44
2018-03-08T13:12:08.853Z,44.44
2018-03-08T13:14:36.514Z,44.79
2018-03-08T13:17:05.164Z,45.09
2018-03-08T13:19:32.827Z,45.17
2018-03-08T13:22:00.444Z,45.21
2018-03-08T13:24:28.065Z,45.93
2018-03-08T13:26:55.713Z,46.10
2018-03-08T13:29:23.336Z,45.94
2018-03-08T13:31:50.983Z,45.37
2018-03-08T13:34:18.630Z,45.67
2018-03-08T13:39:19.097Z,46.33
2018-03-08T13:41:46.760Z,45.96
2018-03-08T13:44:14.390Z,46.50
2018-03-08T13:46:41.991Z,46.70
2018-03-08T13:49:21.662Z,46.30
2018-03-08T13:51:49.332Z,46.24
2018-03-08T13:54:16.981Z,46.23
2018-03-08T13:56:44.601Z,45.96
2018-03-08T13:59:12.249Z,45.54
2018-03-08T14:01:39.913Z,45.42
2018-03-08T14:04:07.560Z,45.01
2018-03-08T14:06:35.168Z,44.47
2018-03-08T14:09:02.809Z,43.79
2018-03-08T14:11:30.411Z,43.91
2018-03-08T14:13:58.092Z,43.34
2018-03-08T14:16:25.752Z,43.09
2018-03-08T14:18:53.412Z,40.69
2018-03-08T14:21:21.036Z,39.95
2018-03-08T14:23:48.676Z,39.36
2018-03-08T14:26:16.270Z,39.87
2018-03-08T14:28:43.920Z,40.04
2018-03-08T14:31:11.548Z,41.17
2018-03-08T14:33:39.188Z,40.99
2018-03-08T14:36:06.813Z,41.75
2018-03-08T14:38:34.474Z,42.49
2018-03-08T14:41:02.104Z,42.20
2018-03-08T14:43:29.712Z,42.34
2018-03-08T14:45:57.356Z,41.87
2018-03-08T14:48:25.012Z,42.61
2018-03-08T14:50:52.719Z,42.90
2018-03-08T14:53:20.350Z,42.76
2018-03-08T14:55:48.005Z,42.95
2018-03-08T14:58:15.610Z,42.82
2018-03-08T15:00:43.270Z,42.05
2018-03-08T15:03:10.892Z,42.02
2018-03-08T15:05:38.545Z,41.92
2018-03-08T15:08:06.153Z,41.32
2018-03-08T15:10:33.815Z,40.92
2018-03-08T15:13:01.421Z,40.70
2018-03-08T15:15:29.071Z,40.25
2018-03-08T15:17:56.688Z,39.90
2018-03-08T15:20:24.361Z,39.79
2018-03-08T15:22:52.003Z,39.84
2018-03-08T15:25:19.660Z,40.25
2018-03-08T15:27:47.310Z,40.02
2018-03-08T15:30:14.925Z,39.73
2018-03-08T15:32:42.577Z,40.57
2018-03-08T15:35:10.193Z,40.80
2018-03-08T15:37:37.849Z,41.21
2018-03-08T15:40:05.538Z,41.22
2018-03-08T15:42:33.165Z,40.18
2018-03-08T15:45:00.785Z,40.25
2018-03-08T15:47:28.448Z,40.79
2018-03-08T15:49:56.060Z,40.83
2018-03-08T15:52:23.707Z,40.99
2018-03-08T15:54:51.320Z,40.63
2018-03-08T15:57:19.022Z,40.72
2018-03-08T15:59:46.884Z,40.58
2018-03-08T16:02:16.457Z,41.23
2018-03-08T16:04:44.255Z,41.20
2018-03-08T16:07:31.496Z,40.91
2018-03-08T16:13:01.351Z,41.13
2018-03-08T16:15:29.098Z,41.11
2018-03-08T16:17:56.875Z,40.97
2018-03-08T16:20:24.601Z,40.66
2018-03-08T16:22:52.449Z,41.12
2018-03-08T16:25:20.401Z,41.12
2018-03-08T16:27:48.291Z,41.14
2018-03-08T16:30:16.633Z,40.96
2018-03-08T16:32:44.533Z,41.07
2018-03-08T16:35:12.409Z,41.63
2018-03-08T16:37:40.596Z,41.83
2018-03-08T16:40:08.444Z,42.04
2018-03-08T16:42:36.302Z,42.18
2018-03-08T16:45:04.272Z,42.06
2018-03-08T16:47:32.140Z,41.83
2018-03-08T16:49:59.932Z,43.38
2018-03-08T16:52:27.725Z,43.32
2018-03-08T16:54:55.562Z,45.37
2018-03-08T16:57:23.440Z,44.67
2018-03-08T16:59:51.371Z,43.94
2018-03-08T17:02:19.333Z,44.05
2018-03-08T17:04:47.311Z,44.34
2018-03-08T17:07:15.177Z,44.72
2018-03-08T17:09:43.160Z,46.02
2018-03-08T17:12:11.122Z,46.71
2018-03-08T17:14:38.981Z,49.96
2018-03-08T17:17:06.882Z,55.09
2018-03-08T17:19:34.705Z,56.36
2018-03-08T17:22:02.468Z,58.29
2018-03-08T17:24:30.236Z,58.56
2018-03-08T17:26:57.999Z,57.66
2018-03-08T17:29:25.716Z,57.54
2018-03-08T17:31:53.529Z,56.67
2018-03-08T17:34:21.379Z,57.74
2018-03-08T17:36:49.157Z,58.68
2018-03-08T17:39:16.820Z,60.42
2018-03-08T17:41:44.585Z,63.48
2018-03-08T17:44:12.349Z,64.96
2018-03-08T17:46:40.110Z,66.64
2018-03-08T17:49:07.876Z,68.95
2018-03-08T17:51:35.745Z,69.87
2018-03-08T17:54:03.549Z,71.47
2018-03-08T17:56:31.374Z,72.98
2018-03-08T17:58:59.141Z,74.57
2018-03-08T18:01:26.893Z,75.81
2018-03-08T18:03:54.564Z,74.85
2018-03-08T18:06:22.280Z,74.35
2018-03-08T18:08:50.092Z,72.57
2018-03-08T18:11:17.819Z,73.14
2018-03-08T18:13:45.621Z,72.89
2018-03-08T18:16:13.390Z,71.55
2018-03-08T18:18:41.353Z,74.40
2018-03-08T18:21:09.014Z,73.57
2018-03-08T18:23:36.780Z,73.50
2018-03-08T18:26:04.484Z,71.87
2018-03-08T18:28:32.206Z,73.17
2018-03-08T18:31:00.077Z,72.20
2018-03-08T18:33:27.838Z,72.40
2018-03-08T18:35:55.556Z,71.74
2018-03-08T18:38:23.365Z,71.66
2018-03-08T18:40:51.130Z,69.82
2018-03-08T18:43:18.954Z,71.26
2018-03-08T18:45:46.659Z,69.84
2018-03-08T18:48:14.422Z,69.92
2018-03-08T18:50:42.243Z,70.55
2018-03-08T18:53:10.055Z,68.97
2018-03-08T18:55:37.820Z,69.27
2018-03-08T18:58:17.358Z,70.49
2018-03-08T19:00:45.123Z,69.75
2018-03-08T19:03:12.903Z,68.90
2018-03-08T19:05:40.548Z,68.77
2018-03-08T19:08:08.317Z,69.46
2018-03-08T19:10:35.976Z,69.56
2018-03-08T19:13:03.843Z,67.41
2018-03-08T19:15:31.556Z,67.78
2018-03-08T19:17:59.384Z,66.49
2018-03-08T19:20:27.138Z,68.02
2018-03-08T19:22:54.959Z,68.72
2018-03-08T19:25:22.844Z,67.79
2018-03-08T19:27:50.631Z,69.14
2018-03-08T19:30:18.319Z,68.70
2018-03-08T19:32:46.158Z,67.61
2018-03-08T19:35:13.923Z,67.65
2018-03-08T19:37:41.726Z,69.10
2018-03-08T19:40:09.393Z,68.88
2018-03-08T19:42:37.215Z,67.34
2018-03-08T19:45:04.833Z,68.28
2018-03-08T19:47:32.580Z,67.66
2018-03-08T19:50:00.196Z,68.62
2018-03-08T19:52:27.851Z,68.66
2018-03-08T19:54:55.454Z,67.84
2018-03-08T19:57:23.141Z,68.23
2018-03-08T19:59:50.740Z,68.69
2018-03-08T20:02:18.449Z,68.40
2018-03-08T20:04:46.072Z,68.98
2018-03-08T20:07:13.800Z,66.90
2018-03-08T20:09:41.450Z,66.52
2018-03-08T20:12:09.065Z,65.43
2018-03-08T20:14:36.713Z,64.79
2018-03-08T20:17:04.313Z,64.88
2018-03-08T20:19:31.958Z,66.12
2018-03-08T20:21:59.610Z,68.53
2018-03-08T20:24:27.289Z,69.11
2018-03-08T20:26:54.961Z,70.36
2018-03-08T20:29:22.619Z,70.67
2018-03-08T20:31:50.228Z,70.00
2018-03-08T20:34:17.881Z,69.63
2018-03-08T20:36:45.504Z,69.60
2018-03-08T20:39:13.169Z,70.55
2018-03-08T20:41:40.796Z,70.13
2018-03-08T20:44:08.438Z,69.14
2018-03-08T20:46:36.028Z,69.06
2018-03-08T20:49:03.680Z,69.34
2018-03-08T20:51:31.287Z,67.75
2018-03-08T20:53:58.945Z,71.03
2018-03-08T20:56:26.550Z,71.78
2018-03-08T20:58:54.212Z,72.00
2018-03-08T21:01:21.823Z,71.21
2018-03-08T21:03:49.474Z,70.40
2018-03-08T21:06:17.094Z,69.94
2018-03-08T21:08:44.748Z,67.21
2018-03-08T21:11:12.364Z,67.25
2018-03-08T21:13:40.016Z,65.62
2018-03-08T21:16:08.109Z,66.04
2018-03-08T21:18:35.802Z,66.59
2018-03-08T21:21:03.415Z,66.91
2018-03-08T21:23:31.072Z,69.17
2018-03-08T21:25:58.741Z,71.98
2018-03-08T21:28:26.392Z,73.14
2018-03-08T21:30:53.998Z,73.14
2018-03-08T21:33:21.655Z,72.15
2018-03-08T21:35:49.275Z,71.69
2018-03-08T21:38:16.911Z,72.46
2018-03-08T21:40:44.517Z,72.70
2018-03-08T21:43:12.165Z,73.27
2018-03-08T21:45:39.784Z,72.61
2018-03-08T21:48:07.437Z,71.87
2018-03-08T21:50:35.040Z,71.81
2018-03-08T21:53:02.684Z,71.52
2018-03-08T21:55:30.371Z,72.40
2018-03-08T21:57:58.017Z,72.13
2018-03-08T22:00:25.608Z,71.38
2018-03-08T22:02:53.248Z,70.78
2018-03-08T22:05:20.856Z,69.99
2018-03-08T22:07:48.496Z,70.66
2018-03-08T22:10:16.116Z,70.36
2018-03-08T22:12:43.712Z,69.49
2018-03-08T22:15:11.373Z,69.05
2018-03-08T22:17:38.972Z,70.76
2018-03-08T22:20:06.625Z,71.25
2018-03-08T22:22:34.348Z,70.59
2018-03-08T22:25:02.355Z,70.73
2018-03-08T22:27:30.198Z,71.35
2018-03-08T22:29:58.027Z,71.98
2018-03-08T22:32:25.665Z,72.26
2018-03-08T22:34:53.661Z,72.25
2018-03-08T22:37:21.298Z,71.87
2018-03-08T22:39:49.397Z,71.83
2018-03-08T22:42:17.037Z,71.12
2018-03-08T22:44:44.798Z,70.71
2018-03-08T22:47:12.456Z,70.70
2018-03-08T22:49:40.411Z,70.49
2018-03-08T22:52:08.033Z,69.88
2018-03-08T22:54:36.059Z,70.34
2018-03-08T22:57:03.684Z,71.53
2018-03-08T22:59:31.593Z,71.52
2018-03-08T23:02:14.886Z,72.36
2018-03-08T23:04:42.938Z,72.62
2018-03-08T23:07:10.788Z,72.78
2018-03-08T23:09:38.488Z,72.68
2018-03-08T23:12:06.119Z,72.43
2018-03-08T23:14:34.152Z,72.57
2018-03-08T23:17:01.854Z,72.32
2018-03-08T23:19:29.516Z,72.40
2018-03-08T23:21:57.248Z,71.84
2018-03-08T23:24:24.908Z,71.25
2018-03-08T23:26:52.561Z,71.16
2018-03-08T23:29:20.481Z,70.72
2018-03-08T23:31:48.099Z,70.81
2018-03-08T23:34:15.983Z,70.16
2018-03-08T23:36:43.584Z,69.65
2018-03-08T23:39:11.221Z,69.54
2018-03-08T23:41:38.864Z,68.79
2018-03-08T23:44:06.504Z,68.60
2018-03-08T23:46:34.278Z,68.56
2018-03-08T23:49:01.984Z,68.95
2018-03-08T23:51:29.603Z,70.53
2018-03-08T23:53:57.243Z,71.86
2018-03-08T23:56:24.865Z,72.20
2018-03-08T23:58:52.536Z,71.60
